Terminal Aerodrome Forecast
Issued by NWS

Home | Current Version | Previous Version | Text Only | Print | Product List | Glossary On
Versions: 1 2 3 4 5 6 7 8 9 10 11 12 13 14 15 16
000
FTUS43 KDDC 152320
TAFGCK
TAF
KGCK 152320Z 1600/1624 36016G25KT P6SM SKC
     FM160400 02020G30KT P6SM BKN110
     FM160600 02020G30KT P6SM BKN025
     FM162100 18011KT P6SM SCT250=

USA.gov is the U.S. government's official web portal to all federal, state and local government web resources and services.